sensor_id;sensor_type;location;lat;lon;timestamp;pressure;altitude;pressure_sealevel;temperature;humidity
10366;BME280;5229;41.820;23.490;2023-05-03T00:02:07;90331.75;;;13.34;50.93
10366;BME280;5229;41.820;23.490;2023-05-03T00:04:34;90323.66;;;13.27;50.86
10366;BME280;5229;41.820;23.490;2023-05-03T00:07:01;90319.69;;;13.21;51.04
10366;BME280;5229;41.820;23.490;2023-05-03T00:09:29;90320.00;;;13.19;50.64
10366;BME280;5229;41.820;23.490;2023-05-03T00:11:56;90323.69;;;13.18;51.16
10366;BME280;5229;41.820;23.490;2023-05-03T00:14:24;90327.06;;;13.19;50.89
10366;BME280;5229;41.820;23.490;2023-05-03T00:16:51;90317.88;;;13.21;50.55
10366;BME280;5229;41.820;23.490;2023-05-03T00:19:18;90307.13;;;13.23;50.84
10366;BME280;5229;41.820;23.490;2023-05-03T00:21:45;90318.78;;;13.25;50.17
10366;BME280;5229;41.820;23.490;2023-05-03T00:24:12;90301.47;;;13.21;49.85
10366;BME280;5229;41.820;23.490;2023-05-03T00:26:40;90306.53;;;13.17;49.76
10366;BME280;5229;41.820;23.490;2023-05-03T00:29:07;90293.06;;;13.15;50.03
10366;BME280;5229;41.820;23.490;2023-05-03T00:31:34;90303.47;;;13.15;49.52
10366;BME280;5229;41.820;23.490;2023-05-03T00:34:00;90303.63;;;13.19;50.29
10366;BME280;5229;41.820;23.490;2023-05-03T00:36:27;90305.94;;;13.20;50.10
10366;BME280;5229;41.820;23.490;2023-05-03T00:38:55;90295.50;;;13.20;50.31
10366;BME280;5229;41.820;23.490;2023-05-03T00:41:22;90295.19;;;13.22;49.70
10366;BME280;5229;41.820;23.490;2023-05-03T00:43:50;90292.59;;;13.22;50.93
10366;BME280;5229;41.820;23.490;2023-05-03T00:46:17;90292.59;;;13.22;50.82
10366;BME280;5229;41.820;23.490;2023-05-03T00:48:44;90298.13;;;13.20;51.33
10366;BME280;5229;41.820;23.490;2023-05-03T00:51:13;90305.03;;;13.16;52.27
10366;BME280;5229;41.820;23.490;2023-05-03T00:53:40;90286.19;;;13.11;52.33
10366;BME280;5229;41.820;23.490;2023-05-03T00:56:08;90279.16;;;13.03;52.41
10366;BME280;5229;41.820;23.490;2023-05-03T00:58:35;90271.66;;;12.93;52.96
10366;BME280;5229;41.820;23.490;2023-05-03T01:01:06;90270.75;;;12.89;53.33
10366;BME280;5229;41.820;23.490;2023-05-03T01:03:33;90281.47;;;12.87;53.74
10366;BME280;5229;41.820;23.490;2023-05-03T01:06:07;90289.56;;;12.86;53.56
10366;BME280;5229;41.820;23.490;2023-05-03T01:08:41;90291.88;;;12.87;52.64
10366;BME280;5229;41.820;23.490;2023-05-03T01:11:13;90290.50;;;12.90;52.29
10366;BME280;5229;41.820;23.490;2023-05-03T01:13:51;90293.41;;;12.88;53.06
10366;BME280;5229;41.820;23.490;2023-05-03T01:16:25;90297.72;;;12.84;51.60
10366;BME280;5229;41.820;23.490;2023-05-03T01:18:54;90294.03;;;12.85;50.96
10366;BME280;5229;41.820;23.490;2023-05-03T01:21:22;90285.91;;;12.87;50.98
10366;BME280;5229;41.820;23.490;2023-05-03T01:23:55;90285.13;;;12.95;50.81
10366;BME280;5229;41.820;23.490;2023-05-03T01:26:24;90278.53;;;12.97;50.07
10366;BME280;5229;41.820;23.490;2023-05-03T01:28:52;90280.38;;;12.97;49.69
10366;BME280;5229;41.820;23.490;2023-05-03T01:31:22;90289.44;;;12.99;48.95
10366;BME280;5229;41.820;23.490;2023-05-03T01:34:09;90267.84;;;12.99;48.99
10366;BME280;5229;41.820;23.490;2023-05-03T01:36:40;90265.09;;;13.04;48.48
10366;BME280;5229;41.820;23.490;2023-05-03T01:39:11;90255.13;;;13.06;48.93
10366;BME280;5229;41.820;23.490;2023-05-03T01:41:42;90250.22;;;13.04;49.32
10366;BME280;5229;41.820;23.490;2023-05-03T01:44:09;90248.81;;;13.07;50.56
10366;BME280;5229;41.820;23.490;2023-05-03T01:46:41;90243.81;;;13.02;50.04
10366;BME280;5229;41.820;23.490;2023-05-03T01:49:08;90245.19;;;12.99;50.75
10366;BME280;5229;41.820;23.490;2023-05-03T01:51:35;90235.06;;;12.98;50.71
10366;BME280;5229;41.820;23.490;2023-05-03T01:54:01;90236.88;;;12.97;50.65
10366;BME280;5229;41.820;23.490;2023-05-03T01:56:29;90240.25;;;12.98;51.14
10366;BME280;5229;41.820;23.490;2023-05-03T01:58:57;90232.19;;;12.99;50.36
10366;BME280;5229;41.820;23.490;2023-05-03T02:01:24;90234.78;;;12.99;50.84
10366;BME280;5229;41.820;23.490;2023-05-03T02:03:50;90235.22;;;13.01;50.61
10366;BME280;5229;41.820;23.490;2023-05-03T02:06:17;90232.63;;;13.01;50.26
10366;BME280;5229;41.820;23.490;2023-05-03T02:08:44;90240.88;;;13.03;49.95
10366;BME280;5229;41.820;23.490;2023-05-03T02:11:11;90235.38;;;13.05;50.37
10366;BME280;5229;41.820;23.490;2023-05-03T02:13:38;90230.94;;;13.05;50.22
10366;BME280;5229;41.820;23.490;2023-05-03T02:16:06;90237.34;;;13.08;49.63
10366;BME280;5229;41.820;23.490;2023-05-03T02:18:33;90233.19;;;13.07;49.44
10366;BME280;5229;41.820;23.490;2023-05-03T02:21:01;90231.38;;;13.07;49.17
10366;BME280;5229;41.820;23.490;2023-05-03T02:23:27;90234.75;;;13.08;49.09
10366;BME280;5229;41.820;23.490;2023-05-03T02:25:54;90228.78;;;13.07;49.03
10366;BME280;5229;41.820;23.490;2023-05-03T02:28:21;90234.75;;;13.08;49.63
10366;BME280;5229;41.820;23.490;2023-05-03T02:30:48;90246.22;;;13.07;49.25
10366;BME280;5229;41.820;23.490;2023-05-03T02:33:16;90236.56;;;13.07;48.85
10366;BME280;5229;41.820;23.490;2023-05-03T02:35:43;90252.97;;;13.08;48.60
10366;BME280;5229;41.820;23.490;2023-05-03T02:38:09;90238.56;;;13.10;47.96
10366;BME280;5229;41.820;23.490;2023-05-03T02:40:36;90235.03;;;13.15;47.95
10366;BME280;5229;41.820;23.490;2023-05-03T02:43:03;90241.13;;;13.19;47.19
10366;BME280;5229;41.820;23.490;2023-05-03T02:45:30;90235.16;;;13.18;47.46
10366;BME280;5229;41.820;23.490;2023-05-03T02:47:57;90233.31;;;13.19;47.05
10366;BME280;5229;41.820;23.490;2023-05-03T02:50:25;90233.03;;;13.20;47.35
10366;BME280;5229;41.820;23.490;2023-05-03T02:52:52;90236.38;;;13.21;47.52
10366;BME280;5229;41.820;23.490;2023-05-03T02:55:19;90238.22;;;13.20;47.57
10366;BME280;5229;41.820;23.490;2023-05-03T02:57:46;90250.78;;;13.18;47.92
10366;BME280;5229;41.820;23.490;2023-05-03T03:00:13;90251.56;;;13.19;48.06
10366;BME280;5229;41.820;23.490;2023-05-03T03:02:41;90266.09;;;13.20;47.79
10366;BME280;5229;41.820;23.490;2023-05-03T03:05:08;90265.00;;;13.21;48.68
10366;BME280;5229;41.820;23.490;2023-05-03T03:07:37;90275.91;;;13.14;49.04
10366;BME280;5229;41.820;23.490;2023-05-03T03:10:05;90287.56;;;13.08;49.47
10366;BME280;5229;41.820;23.490;2023-05-03T03:12:32;90289.56;;;13.03;49.55
10366;BME280;5229;41.820;23.490;2023-05-03T03:14:59;90286.53;;;13.01;50.32
10366;BME280;5229;41.820;23.490;2023-05-03T03:17:26;90296.16;;;12.92;50.53
10366;BME280;5229;41.820;23.490;2023-05-03T03:19:53;90307.19;;;12.89;51.30
10366;BME280;5229;41.820;23.490;2023-05-03T03:22:19;90312.25;;;12.85;51.50
10366;BME280;5229;41.820;23.490;2023-05-03T03:24:48;90317.94;;;12.79;52.24
10366;BME280;5229;41.820;23.490;2023-05-03T03:27:14;90341.66;;;12.69;53.40
10366;BME280;5229;41.820;23.490;2023-05-03T03:29:41;90332.16;;;12.56;53.78
10366;BME280;5229;41.820;23.490;2023-05-03T03:32:08;90318.06;;;12.40;54.38
10366;BME280;5229;41.820;23.490;2023-05-03T03:34:34;90330.00;;;12.24;55.24
10366;BME280;5229;41.820;23.490;2023-05-03T03:37:01;90337.34;;;12.05;55.63
10366;BME280;5229;41.820;23.490;2023-05-03T03:39:28;90329.94;;;11.81;56.27
10366;BME280;5229;41.820;23.490;2023-05-03T03:41:56;90325.56;;;11.59;58.12
10366;BME280;5229;41.820;23.490;2023-05-03T03:44:23;90328.72;;;11.48;58.20
10366;BME280;5229;41.820;23.490;2023-05-03T03:46:50;90327.47;;;11.37;58.73
10366;BME280;5229;41.820;23.490;2023-05-03T03:49:17;90334.28;;;11.24;58.97
10366;BME280;5229;41.820;23.490;2023-05-03T03:51:43;90341.25;;;11.15;58.73
10366;BME280;5229;41.820;23.490;2023-05-03T03:54:10;90342.47;;;11.09;59.31
10366;BME280;5229;41.820;23.490;2023-05-03T03:56:37;90342.88;;;11.03;60.50
10366;BME280;5229;41.820;23.490;2023-05-03T03:59:05;90345.75;;;11.01;60.61
10366;BME280;5229;41.820;23.490;2023-05-03T04:01:32;90338.28;;;11.00;61.58
10366;BME280;5229;41.820;23.490;2023-05-03T04:03:59;90343.78;;;10.98;61.24
10366;BME280;5229;41.820;23.490;2023-05-03T04:06:26;90339.34;;;10.99;61.39
10366;BME280;5229;41.820;23.490;2023-05-03T04:08:53;90341.19;;;10.98;61.94
10366;BME280;5229;41.820;23.490;2023-05-03T04:11:20;90347.31;;;11.02;61.97
10366;BME280;5229;41.820;23.490;2023-05-03T04:13:46;90353.53;;;11.01;62.42
10366;BME280;5229;41.820;23.490;2023-05-03T04:16:15;90356.13;;;11.01;62.26
10366;BME280;5229;41.820;23.490;2023-05-03T04:18:42;90362.09;;;11.02;62.74
10366;BME280;5229;41.820;23.490;2023-05-03T04:21:09;90363.63;;;11.03;62.55
10366;BME280;5229;41.820;23.490;2023-05-03T04:23:35;90374.19;;;11.06;62.94
10366;BME280;5229;41.820;23.490;2023-05-03T04:26:02;90373.00;;;11.12;62.35
10366;BME280;5229;41.820;23.490;2023-05-03T04:28:29;90366.63;;;11.18;64.04
10366;BME280;5229;41.820;23.490;2023-05-03T04:30:56;90379.50;;;11.23;63.38
10366;BME280;5229;41.820;23.490;2023-05-03T04:33:25;90386.38;;;11.28;64.19
10366;BME280;5229;41.820;23.490;2023-05-03T04:35:54;90383.47;;;11.29;64.01
10366;BME280;5229;41.820;23.490;2023-05-03T04:38:21;90383.94;;;11.31;64.25
10366;BME280;5229;41.820;23.490;2023-05-03T04:40:48;90386.41;;;11.36;64.16
10366;BME280;5229;41.820;23.490;2023-05-03T04:43:14;90385.72;;;11.44;64.09
10366;BME280;5229;41.820;23.490;2023-05-03T04:45:41;90384.34;;;11.47;64.18
10366;BME280;5229;41.820;23.490;2023-05-03T04:48:08;90380.53;;;11.53;65.01
10366;BME280;5229;41.820;23.490;2023-05-03T04:50:36;90388.56;;;11.65;64.67
10366;BME280;5229;41.820;23.490;2023-05-03T04:53:03;90399.00;;;11.73;64.68
10366;BME280;5229;41.820;23.490;2023-05-03T04:55:30;90401.44;;;11.78;65.50
10366;BME280;5229;41.820;23.490;2023-05-03T04:57:57;90404.81;;;11.79;65.11
10366;BME280;5229;41.820;23.490;2023-05-03T05:00:24;90404.66;;;11.75;65.01
10366;BME280;5229;41.820;23.490;2023-05-03T05:02:51;90405.72;;;11.74;64.87
10366;BME280;5229;41.820;23.490;2023-05-03T05:05:17;90411.69;;;11.75;64.49
10366;BME280;5229;41.820;23.490;2023-05-03T05:07:46;90416.59;;;11.76;65.38
10366;BME280;5229;41.820;23.490;2023-05-03T05:10:12;90411.84;;;11.78;65.73
10366;BME280;5229;41.820;23.490;2023-05-03T05:12:40;90421.03;;;11.84;64.58
10366;BME280;5229;41.820;23.490;2023-05-03T05:15:08;90423.34;;;11.86;64.27
10366;BME280;5229;41.820;23.490;2023-05-03T05:17:34;90426.53;;;11.83;64.65
10366;BME280;5229;41.820;23.490;2023-05-03T05:20:01;90424.72;;;11.83;65.73
10366;BME280;5229;41.820;23.490;2023-05-03T05:22:31;90435.25;;;11.87;64.53
10366;BME280;5229;41.820;23.490;2023-05-03T05:24:59;90440.63;;;11.91;64.99
10366;BME280;5229;41.820;23.490;2023-05-03T05:27:26;90442.16;;;11.92;64.35
10366;BME280;5229;41.820;23.490;2023-05-03T05:29:53;90443.53;;;11.89;64.58
10366;BME280;5229;41.820;23.490;2023-05-03T05:32:19;90433.44;;;11.88;64.55
10366;BME280;5229;41.820;23.490;2023-05-03T05:34:46;90441.69;;;11.89;64.63
10366;BME280;5229;41.820;23.490;2023-05-03T05:37:17;90445.22;;;11.93;64.57
10366;BME280;5229;41.820;23.490;2023-05-03T05:39:44;90437.00;;;12.00;65.29
10366;BME280;5229;41.820;23.490;2023-05-03T05:42:12;90441.16;;;12.10;64.33
10366;BME280;5229;41.820;23.490;2023-05-03T05:44:39;90441.00;;;12.15;64.59
10366;BME280;5229;41.820;23.490;2023-05-03T05:47:05;90438.09;;;12.16;64.33
10366;BME280;5229;41.820;23.490;2023-05-03T05:49:32;90431.09;;;12.17;64.61
10366;BME280;5229;41.820;23.490;2023-05-03T05:51:59;90432.50;;;12.23;63.87
10366;BME280;5229;41.820;23.490;2023-05-03T05:54:26;90437.06;;;12.26;63.57
10366;BME280;5229;41.820;23.490;2023-05-03T05:56:53;90430.94;;;12.22;63.41
10366;BME280;5229;41.820;23.490;2023-05-03T05:59:21;90435.69;;;12.20;63.63
10366;BME280;5229;41.820;23.490;2023-05-03T06:01:48;90435.38;;;12.13;63.90
10366;BME280;5229;41.820;23.490;2023-05-03T06:04:15;90425.41;;;12.15;64.35
10366;BME280;5229;41.820;23.490;2023-05-03T06:06:42;90431.56;;;12.19;64.28
10366;BME280;5229;41.820;23.490;2023-05-03T06:09:09;90426.50;;;12.22;63.48
10366;BME280;5229;41.820;23.490;2023-05-03T06:11:36;90427.44;;;12.26;63.78
10366;BME280;5229;41.820;23.490;2023-05-03T06:14:03;90423.78;;;12.36;63.95
10366;BME280;5229;41.820;23.490;2023-05-03T06:16:35;90429.91;;;12.40;63.34
10366;BME280;5229;41.820;23.490;2023-05-03T06:19:02;90431.47;;;12.41;63.17
10366;BME280;5229;41.820;23.490;2023-05-03T06:21:29;90430.38;;;12.42;63.60
10366;BME280;5229;41.820;23.490;2023-05-03T06:23:56;90424.56;;;12.45;62.99
10366;BME280;5229;41.820;23.490;2023-05-03T06:26:22;90427.94;;;12.54;63.59
10366;BME280;5229;41.820;23.490;2023-05-03T06:28:49;90428.25;;;12.61;63.37
10366;BME280;5229;41.820;23.490;2023-05-03T06:31:16;90425.06;;;12.64;62.51
10366;BME280;5229;41.820;23.490;2023-05-03T06:33:44;90423.53;;;12.71;62.86
10366;BME280;5229;41.820;23.490;2023-05-03T06:36:12;90426.16;;;12.80;63.07
10366;BME280;5229;41.820;23.490;2023-05-03T06:38:39;90418.97;;;12.85;62.97
10366;BME280;5229;41.820;23.490;2023-05-03T06:41:05;90421.69;;;12.89;62.45
10366;BME280;5229;41.820;23.490;2023-05-03T06:43:32;90419.41;;;12.96;62.79
10366;BME280;5229;41.820;23.490;2023-05-03T06:46:00;90409.63;;;13.01;62.41
10366;BME280;5229;41.820;23.490;2023-05-03T06:48:27;90414.38;;;13.08;62.19
10366;BME280;5229;41.820;23.490;2023-05-03T06:50:55;90416.06;;;13.12;62.14
10366;BME280;5229;41.820;23.490;2023-05-03T06:53:22;90419.59;;;13.16;61.89
10366;BME280;5229;41.820;23.490;2023-05-03T06:55:49;90423.09;;;13.20;61.50
10366;BME280;5229;41.820;23.490;2023-05-03T06:58:15;90424.47;;;13.26;61.71
10366;BME280;5229;41.820;23.490;2023-05-03T07:00:42;90423.53;;;13.31;61.47
10366;BME280;5229;41.820;23.490;2023-05-03T07:03:10;90417.56;;;13.39;61.17
10366;BME280;5229;41.820;23.490;2023-05-03T07:05:36;90420.28;;;13.51;61.56
10366;BME280;5229;41.820;23.490;2023-05-03T07:08:05;90410.44;;;13.65;60.85
10366;BME280;5229;41.820;23.490;2023-05-03T07:10:31;90415.47;;;13.78;60.80
10366;BME280;5229;41.820;23.490;2023-05-03T07:12:58;90419.09;;;13.94;60.28
10366;BME280;5229;41.820;23.490;2023-05-03T07:15:25;90414.13;;;14.10;60.10
10366;BME280;5229;41.820;23.490;2023-05-03T07:17:52;90409.50;;;14.24;59.87
10366;BME280;5229;41.820;23.490;2023-05-03T07:20:19;90416.94;;;14.34;59.65
10366;BME280;5229;41.820;23.490;2023-05-03T07:22:46;90415.25;;;14.38;59.30
10366;BME280;5229;41.820;23.490;2023-05-03T07:25:14;90422.00;;;14.39;59.34
10366;BME280;5229;41.820;23.490;2023-05-03T07:27:42;90412.19;;;14.36;59.00
10366;BME280;5229;41.820;23.490;2023-05-03T07:30:09;90416.94;;;14.34;58.87
10366;BME280;5229;41.820;23.490;2023-05-03T07:32:36;90416.34;;;14.28;58.59
10366;BME280;5229;41.820;23.490;2023-05-03T07:35:03;90417.31;;;14.24;58.24
10366;BME280;5229;41.820;23.490;2023-05-03T07:37:31;90415.63;;;14.19;58.25
10366;BME280;5229;41.820;23.490;2023-05-03T07:39:58;90428.06;;;14.14;58.15
10366;BME280;5229;41.820;23.490;2023-05-03T07:42:26;90426.09;;;14.11;58.25
10366;BME280;5229;41.820;23.490;2023-05-03T07:44:53;90431.72;;;14.13;58.35
10366;BME280;5229;41.820;23.490;2023-05-03T07:47:20;90425.91;;;14.16;58.30
10366;BME280;5229;41.820;23.490;2023-05-03T07:49:47;90437.22;;;14.20;58.01
10366;BME280;5229;41.820;23.490;2023-05-03T07:52:15;90432.97;;;14.24;58.05
10366;BME280;5229;41.820;23.490;2023-05-03T07:54:42;90418.22;;;14.28;58.28
10366;BME280;5229;41.820;23.490;2023-05-03T07:57:10;90408.78;;;14.35;57.91
10366;BME280;5229;41.820;23.490;2023-05-03T07:59:39;90415.94;;;14.47;58.19
10366;BME280;5229;41.820;23.490;2023-05-03T08:02:06;90419.88;;;14.61;57.66
10366;BME280;5229;41.820;23.490;2023-05-03T08:04:33;90417.63;;;14.72;57.90
10366;BME280;5229;41.820;23.490;2023-05-03T08:07:00;90425.03;;;14.91;57.24
10366;BME280;5229;41.820;23.490;2023-05-03T08:09:27;90417.75;;;15.17;57.57
10366;BME280;5229;41.820;23.490;2023-05-03T08:11:54;90416.63;;;15.47;56.91
10366;BME280;5229;41.820;23.490;2023-05-03T08:14:21;90412.22;;;15.71;56.53
10366;BME280;5229;41.820;23.490;2023-05-03T08:16:49;90413.31;;;15.82;55.52
10366;BME280;5229;41.820;23.490;2023-05-03T08:19:16;90411.47;;;15.83;55.30
10366;BME280;5229;41.820;23.490;2023-05-03T08:21:43;90411.59;;;15.86;55.06
10366;BME280;5229;41.820;23.490;2023-05-03T08:24:11;90405.63;;;15.98;54.78
10366;BME280;5229;41.820;23.490;2023-05-03T08:26:38;90405.97;;;16.08;54.20
10366;BME280;5229;41.820;23.490;2023-05-03T08:29:05;90407.47;;;16.09;54.20
10366;BME280;5229;41.820;23.490;2023-05-03T08:31:32;90410.56;;;16.11;54.50
10366;BME280;5229;41.820;23.490;2023-05-03T08:34:00;90408.59;;;16.08;53.96
10366;BME280;5229;41.820;23.490;2023-05-03T08:36:28;90410.31;;;16.04;53.80
10366;BME280;5229;41.820;23.490;2023-05-03T08:38:56;90411.28;;;16.00;53.62
10366;BME280;5229;41.820;23.490;2023-05-03T08:41:27;90410.28;;;15.92;53.80
10366;BME280;5229;41.820;23.490;2023-05-03T08:43:54;90416.06;;;15.86;53.43
10366;BME280;5229;41.820;23.490;2023-05-03T08:46:22;90419.19;;;15.79;53.45
10366;BME280;5229;41.820;23.490;2023-05-03T08:48:51;90419.31;;;15.71;53.44
10366;BME280;5229;41.820;23.490;2023-05-03T08:51:20;90414.91;;;15.63;53.38
10366;BME280;5229;41.820;23.490;2023-05-03T08:53:47;90410.00;;;15.61;53.13
10366;BME280;5229;41.820;23.490;2023-05-03T08:56:17;90414.59;;;15.64;52.76
10366;BME280;5229;41.820;23.490;2023-05-03T08:58:45;90414.91;;;15.63;53.12
10366;BME280;5229;41.820;23.490;2023-05-03T09:01:12;90404.03;;;15.61;53.52
10366;BME280;5229;41.820;23.490;2023-05-03T09:03:39;90409.13;;;15.57;52.98
10366;BME280;5229;41.820;23.490;2023-05-03T09:06:19;90416.84;;;15.54;52.98
10366;BME280;5229;41.820;23.490;2023-05-03T09:08:46;90418.91;;;15.48;53.10
10366;BME280;5229;41.820;23.490;2023-05-03T09:11:21;90420.19;;;15.42;53.46
10366;BME280;5229;41.820;23.490;2023-05-03T09:13:49;90420.81;;;15.39;53.62
10366;BME280;5229;41.820;23.490;2023-05-03T09:16:22;90414.69;;;15.35;53.50
10366;BME280;5229;41.820;23.490;2023-05-03T09:18:55;90411.78;;;15.37;54.54
10366;BME280;5229;41.820;23.490;2023-05-03T09:21:24;90400.72;;;15.52;54.79
10366;BME280;5229;41.820;23.490;2023-05-03T09:23:51;90400.47;;;15.77;55.37
10366;BME280;5229;41.820;23.490;2023-05-03T09:26:28;90407.47;;;16.09;55.25
10366;BME280;5229;41.820;23.490;2023-05-03T09:28:57;90408.25;;;16.34;54.65
10366;BME280;5229;41.820;23.490;2023-05-03T09:31:25;90402.94;;;16.54;54.14
10366;BME280;5229;41.820;23.490;2023-05-03T09:33:51;90387.00;;;16.71;54.08
10366;BME280;5229;41.820;23.490;2023-05-03T09:36:18;90395.16;;;16.82;53.91
10366;BME280;5229;41.820;23.490;2023-05-03T09:38:47;90388.16;;;16.86;53.56
10366;BME280;5229;41.820;23.490;2023-05-03T09:41:14;90393.84;;;16.88;52.81
10366;BME280;5229;41.820;23.490;2023-05-03T09:43:48;90391.88;;;16.85;52.69
10366;BME280;5229;41.820;23.490;2023-05-03T09:46:15;90394.72;;;16.80;52.41
10366;BME280;5229;41.820;23.490;2023-05-03T09:48:42;90389.25;;;16.73;52.75
10366;BME280;5229;41.820;23.490;2023-05-03T09:51:10;90383.59;;;16.71;52.68
10366;BME280;5229;41.820;23.490;2023-05-03T09:53:38;90391.13;;;16.72;52.47
10366;BME280;5229;41.820;23.490;2023-05-03T09:56:08;90381.50;;;16.88;52.60
10366;BME280;5229;41.820;23.490;2023-05-03T09:58:37;90377.50;;;17.06;51.84
10366;BME280;5229;41.820;23.490;2023-05-03T10:01:04;90372.31;;;17.22;51.16
10366;BME280;5229;41.820;23.490;2023-05-03T10:03:33;90372.09;;;17.27;51.39
10366;BME280;5229;41.820;23.490;2023-05-03T10:06:05;90373.44;;;17.21;51.78
10366;BME280;5229;41.820;23.490;2023-05-03T10:08:40;90381.75;;;17.11;51.54
10366;BME280;5229;41.820;23.490;2023-05-03T10:11:09;90368.56;;;17.07;51.48
10366;BME280;5229;41.820;23.490;2023-05-03T10:13:38;90366.00;;;17.23;52.38
10366;BME280;5229;41.820;23.490;2023-05-03T10:16:07;90367.59;;;17.83;51.17
10366;BME280;5229;41.820;23.490;2023-05-03T10:18:42;90360.16;;;18.47;49.98
10366;BME280;5229;41.820;23.490;2023-05-03T10:21:13;90365.44;;;18.66;49.25
10366;BME280;5229;41.820;23.490;2023-05-03T10:24:08;90360.25;;;18.50;49.10
10366;BME280;5229;41.820;23.490;2023-05-03T10:26:39;90348.97;;;18.50;49.21
10366;BME280;5229;41.820;23.490;2023-05-03T10:29:44;90342.19;;;18.49;49.35
10366;BME280;5229;41.820;23.490;2023-05-03T10:32:32;90356.00;;;18.46;49.15
10366;BME280;5229;41.820;23.490;2023-05-03T10:35:00;90341.59;;;18.24;49.49
10366;BME280;5229;41.820;23.490;2023-05-03T10:37:28;90341.53;;;18.05;49.50
10366;BME280;5229;41.820;23.490;2023-05-03T10:39:55;90344.03;;;17.86;50.00
10366;BME280;5229;41.820;23.490;2023-05-03T10:42:32;90339.56;;;17.71;50.43
10366;BME280;5229;41.820;23.490;2023-05-03T10:44:59;90335.69;;;17.65;50.45
10366;BME280;5229;41.820;23.490;2023-05-03T10:47:28;90329.56;;;17.61;50.37
10366;BME280;5229;41.820;23.490;2023-05-03T10:53:01;90333.28;;;17.60;50.22
10366;BME280;5229;41.820;23.490;2023-05-03T10:55:28;90332.00;;;17.54;50.78
10366;BME280;5229;41.820;23.490;2023-05-03T10:57:57;90323.38;;;17.54;50.41
10366;BME280;5229;41.820;23.490;2023-05-03T11:00:32;90324.47;;;17.52;50.47
10366;BME280;5229;41.820;23.490;2023-05-03T11:03:11;90321.19;;;17.56;50.84
10366;BME280;5229;41.820;23.490;2023-05-03T11:05:39;90320.50;;;17.59;50.61
10366;BME280;5229;41.820;23.490;2023-05-03T11:08:11;90317.47;;;17.57;50.70
10366;BME280;5229;41.820;23.490;2023-05-03T11:10:38;90320.00;;;17.53;50.65
10366;BME280;5229;41.820;23.490;2023-05-03T11:13:06;90322.78;;;17.44;50.82
10366;BME280;5229;41.820;23.490;2023-05-03T11:15:34;90310.63;;;17.40;51.39
10366;BME280;5229;41.820;23.490;2023-05-03T11:18:01;90309.72;;;17.32;51.36
10366;BME280;5229;41.820;23.490;2023-05-03T11:20:28;90310.97;;;17.23;51.91
10366;BME280;5229;41.820;23.490;2023-05-03T11:22:55;90312.34;;;17.05;52.35
10366;BME280;5229;41.820;23.490;2023-05-03T11:25:22;90316.78;;;16.89;52.27
10366;BME280;5229;41.820;23.490;2023-05-03T11:27:48;90306.50;;;16.56;52.88
10366;BME280;5229;41.820;23.490;2023-05-03T11:30:17;90292.34;;;16.21;54.04
10366;BME280;5229;41.820;23.490;2023-05-03T11:32:44;90293.25;;;15.89;54.65
10366;BME280;5229;41.820;23.490;2023-05-03T11:35:11;90302.63;;;15.66;55.76
10366;BME280;5229;41.820;23.490;2023-05-03T11:37:40;90306.72;;;15.43;55.90
10366;BME280;5229;41.820;23.490;2023-05-03T11:40:13;90312.75;;;15.23;55.94
10366;BME280;5229;41.820;23.490;2023-05-03T11:42:52;90306.38;;;15.00;55.75
10366;BME280;5229;41.820;23.490;2023-05-03T11:45:21;90313.06;;;14.89;57.08
10366;BME280;5229;41.820;23.490;2023-05-03T11:47:49;90308.25;;;14.79;57.17
10366;BME280;5229;41.820;23.490;2023-05-03T11:50:17;90313.69;;;14.74;57.55
10366;BME280;5229;41.820;23.490;2023-05-03T11:52:44;90300.06;;;14.68;58.32
10366;BME280;5229;41.820;23.490;2023-05-03T11:55:11;90296.22;;;14.66;57.76
10366;BME280;5229;41.820;23.490;2023-05-03T11:57:38;90292.09;;;14.65;58.19
10366;BME280;5229;41.820;23.490;2023-05-03T12:00:12;90290.03;;;14.70;58.36
10366;BME280;5229;41.820;23.490;2023-05-03T12:02:42;90277.75;;;14.71;58.25
10366;BME280;5229;41.820;23.490;2023-05-03T12:05:09;90269.06;;;14.67;59.05
10366;BME280;5229;41.820;23.490;2023-05-03T12:07:37;90261.00;;;14.72;58.84
10366;BME280;5229;41.820;23.490;2023-05-03T12:10:14;90276.91;;;14.79;59.59
10366;BME280;5229;41.820;23.490;2023-05-03T12:12:53;90261.31;;;14.91;59.68
10366;BME280;5229;41.820;23.490;2023-05-03T12:15:31;90266.56;;;15.03;60.45
10366;BME280;5229;41.820;23.490;2023-05-03T12:18:00;90282.47;;;15.10;60.49
10366;BME280;5229;41.820;23.490;2023-05-03T12:20:28;90289.19;;;15.11;60.73
10366;BME280;5229;41.820;23.490;2023-05-03T12:23:00;90277.22;;;15.10;60.80
10366;BME280;5229;41.820;23.490;2023-05-03T12:25:28;90271.13;;;15.06;60.79
10366;BME280;5229;41.820;23.490;2023-05-03T12:27:56;90270.03;;;14.95;61.28
10366;BME280;5229;41.820;23.490;2023-05-03T12:30:23;90248.66;;;14.81;61.76
10366;BME280;5229;41.820;23.490;2023-05-03T12:32:50;90252.44;;;14.72;62.27
10366;BME280;5229;41.820;23.490;2023-05-03T12:35:19;90268.16;;;14.63;62.62
10366;BME280;5229;41.820;23.490;2023-05-03T12:37:47;90261.63;;;14.57;63.33
10366;BME280;5229;41.820;23.490;2023-05-03T12:40:14;90242.88;;;14.55;63.54
10366;BME280;5229;41.820;23.490;2023-05-03T12:42:42;90236.78;;;14.51;63.98
10366;BME280;5229;41.820;23.490;2023-05-03T12:45:10;90221.13;;;14.51;64.32
10366;BME280;5229;41.820;23.490;2023-05-03T12:47:37;90226.16;;;14.56;64.56
10366;BME280;5229;41.820;23.490;2023-05-03T12:50:04;90232.50;;;14.67;64.86
10366;BME280;5229;41.820;23.490;2023-05-03T12:52:34;90233.66;;;14.90;64.76
10366;BME280;5229;41.820;23.490;2023-05-03T12:55:02;90240.66;;;15.10;64.82
10366;BME280;5229;41.820;23.490;2023-05-03T12:57:29;90244.38;;;15.21;64.29
10366;BME280;5229;41.820;23.490;2023-05-03T12:59:56;90236.44;;;15.18;63.92
10366;BME280;5229;41.820;23.490;2023-05-03T13:02:23;90238.28;;;15.05;64.46
10366;BME280;5229;41.820;23.490;2023-05-03T13:04:50;90235.94;;;14.92;64.71
10366;BME280;5229;41.820;23.490;2023-05-03T13:07:20;90237.19;;;14.73;64.50
10366;BME280;5229;41.820;23.490;2023-05-03T13:09:50;90229.53;;;14.56;64.54